createdAt,value
2023-05-23T00:02:08.273Z,25.86
2023-05-23T00:04:37.005Z,25.95
2023-05-23T00:07:04.605Z,25.85
2023-05-23T00:09:31.918Z,25.79
2023-05-23T00:11:59.460Z,26.13
2023-05-23T00:14:27.013Z,26.12
2023-05-23T00:16:55.544Z,26.03
2023-05-23T00:19:22.923Z,26.15
2023-05-23T00:21:51.275Z,26.20
2023-05-23T00:24:20.560Z,26.36
2023-05-23T00:26:48.029Z,26.25
2023-05-23T00:29:18.395Z,25.88
2023-05-23T00:31:50.792Z,26.19
2023-05-23T00:34:18.601Z,26.52
2023-05-23T00:36:48.011Z,26.36
2023-05-23T00:39:20.381Z,25.93
2023-05-23T00:41:51.839Z,26.09
2023-05-23T00:44:22.992Z,26.20
2023-05-23T00:46:55.590Z,26.17
2023-05-23T00:49:23.476Z,26.24
2023-05-23T00:51:52.131Z,26.09
2023-05-23T00:54:29.592Z,26.01
2023-05-23T00:56:57.191Z,25.87
2023-05-23T00:59:24.987Z,25.82
2023-05-23T01:01:53.145Z,25.52
2023-05-23T01:04:20.603Z,25.52
2023-05-23T01:06:49.330Z,25.19
2023-05-23T01:09:16.865Z,25.30
2023-05-23T01:11:50.744Z,25.21
2023-05-23T01:14:22.111Z,24.93
2023-05-23T01:16:57.314Z,25.00
2023-05-23T01:19:50.799Z,24.94
2023-05-23T01:22:32.063Z,25.13
2023-05-23T01:25:16.250Z,25.15
2023-05-23T01:27:50.406Z,25.08
2023-05-23T01:30:19.260Z,24.92
2023-05-23T01:32:51.580Z,24.78
2023-05-23T01:35:29.014Z,24.83
2023-05-23T01:37:56.578Z,24.86
2023-05-23T01:40:24.656Z,24.68
2023-05-23T01:42:55.822Z,24.64
2023-05-23T01:45:23.200Z,24.64
2023-05-23T01:47:50.778Z,24.56
2023-05-23T01:50:18.270Z,24.11
2023-05-23T01:52:46.944Z,24.01
2023-05-23T01:55:15.831Z,23.97
2023-05-23T01:57:43.360Z,23.53
2023-05-23T02:00:12.458Z,23.48
2023-05-23T02:02:42.511Z,23.46
2023-05-23T02:05:11.239Z,23.33
2023-05-23T02:07:39.717Z,23.45
2023-05-23T02:10:10.076Z,23.20
2023-05-23T02:12:38.704Z,23.03
2023-05-23T02:15:07.765Z,23.17
2023-05-23T02:17:35.196Z,23.47
2023-05-23T02:20:02.655Z,23.38
2023-05-23T02:22:31.866Z,23.36
2023-05-23T02:24:59.178Z,23.23
2023-05-23T02:27:26.570Z,23.25
2023-05-23T02:29:53.999Z,23.56
2023-05-23T02:32:21.302Z,23.43
2023-05-23T02:34:50.435Z,23.40
2023-05-23T02:37:17.952Z,23.52
2023-05-23T02:39:45.357Z,23.72
2023-05-23T02:42:12.663Z,23.75
2023-05-23T02:44:40.393Z,23.70
2023-05-23T02:47:07.706Z,23.77
2023-05-23T02:49:35.362Z,23.69
2023-05-23T02:52:02.897Z,23.96
2023-05-23T02:54:31.903Z,23.90
2023-05-23T02:56:59.662Z,23.85
2023-05-23T02:59:27.434Z,24.02
2023-05-23T03:01:54.886Z,23.91
2023-05-23T03:04:22.450Z,23.86
2023-05-23T03:06:49.894Z,23.89
2023-05-23T03:09:18.217Z,24.10
2023-05-23T03:11:45.832Z,23.91
2023-05-23T03:14:13.227Z,24.04
2023-05-23T03:16:40.983Z,24.19
2023-05-23T03:19:08.639Z,24.34
2023-05-23T03:21:36.437Z,24.22
2023-05-23T03:24:03.925Z,24.46
2023-05-23T03:26:31.289Z,24.79
2023-05-23T03:28:58.734Z,23.82
2023-05-23T03:31:26.470Z,24.46
2023-05-23T03:33:53.924Z,24.89
2023-05-23T03:36:22.127Z,25.25
2023-05-23T03:38:49.720Z,25.32
2023-05-23T03:41:17.475Z,25.47
2023-05-23T03:43:45.319Z,25.66
2023-05-23T03:46:12.963Z,25.76
2023-05-23T03:48:41.992Z,25.93
2023-05-23T03:51:09.696Z,26.01
2023-05-23T03:53:37.404Z,26.32
2023-05-23T03:56:05.273Z,26.91
2023-05-23T03:58:32.752Z,27.09
2023-05-23T04:01:03.206Z,27.08
2023-05-23T04:03:33.222Z,26.87
2023-05-23T04:06:03.145Z,27.28
2023-05-23T04:08:34.137Z,27.56
2023-05-23T04:11:02.082Z,27.60
2023-05-23T04:13:33.423Z,27.37
2023-05-23T04:16:02.271Z,27.56
2023-05-23T04:18:30.608Z,27.55
2023-05-23T04:20:58.193Z,27.93
2023-05-23T04:23:25.853Z,28.26
2023-05-23T04:25:54.591Z,28.22
2023-05-23T04:28:27.747Z,28.32
2023-05-23T04:30:56.475Z,28.43
2023-05-23T04:33:28.446Z,28.52
2023-05-23T04:35:57.375Z,28.38
2023-05-23T04:38:25.418Z,28.55
2023-05-23T04:40:54.165Z,28.85
2023-05-23T04:43:44.452Z,29.26
2023-05-23T04:46:22.266Z,29.39
2023-05-23T04:48:56.821Z,29.31
2023-05-23T04:51:25.227Z,29.38
2023-05-23T04:53:56.825Z,29.50
2023-05-23T04:56:28.325Z,29.90
2023-05-23T04:58:56.208Z,29.99
2023-05-23T05:01:25.047Z,30.06
2023-05-23T05:03:53.047Z,30.21
2023-05-23T05:06:21.767Z,30.59
2023-05-23T05:08:49.877Z,31.09
2023-05-23T05:11:17.213Z,31.46
2023-05-23T05:13:44.608Z,31.93
2023-05-23T05:16:12.235Z,32.27
2023-05-23T05:18:40.396Z,32.86
2023-05-23T05:21:08.258Z,33.48
2023-05-23T05:23:37.467Z,33.99
2023-05-23T05:26:05.775Z,34.22
2023-05-23T05:28:33.479Z,34.45
2023-05-23T05:31:05.084Z,34.56
2023-05-23T05:33:36.388Z,34.74
2023-05-23T05:36:10.058Z,34.90
2023-05-23T05:38:37.336Z,34.82
2023-05-23T05:41:06.270Z,34.72
2023-05-23T05:43:37.213Z,34.77
2023-05-23T05:46:04.863Z,34.78
2023-05-23T05:48:32.791Z,34.64
2023-05-23T05:51:04.981Z,34.62
2023-05-23T05:53:33.984Z,34.67
2023-05-23T05:56:02.309Z,34.88
2023-05-23T05:58:30.416Z,35.23
2023-05-23T06:01:01.529Z,35.48
2023-05-23T06:03:28.903Z,36.14
2023-05-23T06:05:57.500Z,36.50
2023-05-23T06:08:24.900Z,36.27
2023-05-23T06:10:52.325Z,36.15
2023-05-23T06:13:20.029Z,36.11
2023-05-23T06:15:51.961Z,35.85
2023-05-23T06:18:19.419Z,35.75
2023-05-23T06:20:46.841Z,35.63
2023-05-23T06:23:16.316Z,35.60
2023-05-23T06:25:45.243Z,35.65
2023-05-23T06:28:12.989Z,35.46
2023-05-23T06:30:40.659Z,35.44
2023-05-23T06:33:08.792Z,35.28
2023-05-23T06:35:36.377Z,35.57
2023-05-23T06:38:03.733Z,35.94
2023-05-23T06:40:31.104Z,35.99
2023-05-23T06:42:58.972Z,36.51
2023-05-23T06:45:41.492Z,37.03
2023-05-23T06:48:12.126Z,37.53
2023-05-23T06:50:41.129Z,37.86
2023-05-23T06:53:09.552Z,37.87
2023-05-23T06:55:36.835Z,38.21
2023-05-23T06:58:04.679Z,38.79
2023-05-23T07:00:32.159Z,39.21
2023-05-23T07:03:07.232Z,39.92
2023-05-23T07:05:37.415Z,40.50
2023-05-23T07:08:10.936Z,40.58
2023-05-23T07:10:41.979Z,40.98
2023-05-23T07:13:29.912Z,40.88
2023-05-23T07:15:57.485Z,41.02
2023-05-23T07:18:30.278Z,41.24
2023-05-23T07:21:06.778Z,41.09
2023-05-23T07:23:37.087Z,40.91
2023-05-23T07:26:06.125Z,40.86
2023-05-23T07:28:43.045Z,40.92
2023-05-23T07:31:10.419Z,41.19
2023-05-23T07:33:38.374Z,41.41
2023-05-23T07:36:06.543Z,41.90
2023-05-23T07:38:33.837Z,42.17
2023-05-23T07:41:12.321Z,42.14
2023-05-23T07:43:42.150Z,41.79
2023-05-23T07:46:09.997Z,41.39
2023-05-23T07:48:38.098Z,41.57
2023-05-23T07:51:05.471Z,42.16
2023-05-23T07:53:34.222Z,42.06
2023-05-23T07:56:03.981Z,41.64
2023-05-23T07:58:34.371Z,41.58
2023-05-23T08:01:03.647Z,41.73
2023-05-23T08:04:06.794Z,41.51
2023-05-23T08:07:00.778Z,41.56
2023-05-23T08:09:52.924Z,41.93
2023-05-23T08:12:20.561Z,42.15
2023-05-23T08:17:09.057Z,39.37
2023-05-23T08:19:37.524Z,40.46
2023-05-23T08:22:05.140Z,40.40
2023-05-23T08:24:34.266Z,40.65
2023-05-23T08:27:01.917Z,40.88
2023-05-23T08:29:29.299Z,41.12
2023-05-23T08:31:57.048Z,41.22
2023-05-23T08:34:25.015Z,40.98
2023-05-23T08:36:52.824Z,40.69
2023-05-23T08:39:21.367Z,40.77
2023-05-23T08:41:56.396Z,41.25
2023-05-23T08:44:23.997Z,41.27
2023-05-23T08:46:55.460Z,41.53
2023-05-23T08:49:38.817Z,41.82
2023-05-23T08:52:06.554Z,42.04
2023-05-23T08:54:35.491Z,42.43
2023-05-23T08:57:02.962Z,42.76
2023-05-23T08:59:31.123Z,43.02
2023-05-23T09:01:58.567Z,43.43
2023-05-23T09:04:26.578Z,43.63
2023-05-23T09:06:58.203Z,43.59
2023-05-23T09:09:25.890Z,43.67
2023-05-23T09:11:54.765Z,43.74
2023-05-23T09:14:22.694Z,43.97
2023-05-23T09:16:51.107Z,43.49
2023-05-23T09:19:21.939Z,43.04
2023-05-23T09:22:00.750Z,42.49
2023-05-23T09:24:38.064Z,42.48
2023-05-23T09:27:08.235Z,42.66
2023-05-23T09:29:41.536Z,42.77
2023-05-23T09:32:13.499Z,43.23
2023-05-23T09:34:42.382Z,43.94
2023-05-23T09:37:13.501Z,44.23
2023-05-23T09:39:40.865Z,44.37
2023-05-23T09:42:08.334Z,44.32
2023-05-23T09:44:41.197Z,44.35
2023-05-23T09:47:09.359Z,43.84
2023-05-23T09:49:39.241Z,43.08
2023-05-23T09:52:06.601Z,42.30
2023-05-23T09:54:34.928Z,42.23
2023-05-23T09:57:02.500Z,42.48
2023-05-23T09:59:29.925Z,42.19
2023-05-23T10:01:57.625Z,42.09
2023-05-23T10:04:25.035Z,42.02
2023-05-23T10:07:00.251Z,41.76
2023-05-23T10:09:27.803Z,41.74
2023-05-23T10:11:55.085Z,41.80
2023-05-23T10:14:22.507Z,41.70
2023-05-23T10:17:09.052Z,41.53
2023-05-23T10:19:50.628Z,41.63
2023-05-23T10:22:18.072Z,41.72
2023-05-23T10:24:45.932Z,41.75
2023-05-23T10:27:13.205Z,41.57
2023-05-23T10:29:40.657Z,41.64
2023-05-23T10:32:07.958Z,41.79
2023-05-23T10:34:58.034Z,41.83
2023-05-23T10:37:46.959Z,41.68
2023-05-23T10:40:26.679Z,41.36
2023-05-23T10:43:06.141Z,41.04
2023-05-23T10:45:42.336Z,40.74
2023-05-23T10:48:28.484Z,40.45
2023-05-23T10:51:04.890Z,40.01
2023-05-23T10:53:34.361Z,40.17
2023-05-23T10:56:01.902Z,40.38
2023-05-23T10:58:32.666Z,40.08
2023-05-23T11:01:34.656Z,39.66
2023-05-23T11:04:08.022Z,39.36
2023-05-23T11:06:44.699Z,39.14
2023-05-23T11:09:14.204Z,39.23
2023-05-23T11:11:51.211Z,39.19
2023-05-23T11:14:18.620Z,38.85
2023-05-23T11:16:48.703Z,38.66
2023-05-23T11:19:19.285Z,38.76
2023-05-23T11:21:51.657Z,38.85
2023-05-23T11:24:19.109Z,39.11
2023-05-23T11:27:04.486Z,39.44
2023-05-23T11:29:31.730Z,39.74
2023-05-23T11:31:59.075Z,40.03
2023-05-23T11:34:26.599Z,40.38
2023-05-23T11:36:57.244Z,41.13
2023-05-23T11:39:24.509Z,41.78
2023-05-23T11:42:05.098Z,41.83
2023-05-23T11:44:32.474Z,41.52
2023-05-23T11:47:06.956Z,41.44
2023-05-23T11:49:36.519Z,41.30
2023-05-23T11:52:04.215Z,40.93
2023-05-23T11:54:32.032Z,40.96
2023-05-23T11:56:59.433Z,40.62
2023-05-23T11:59:26.908Z,40.50
2023-05-23T12:01:54.893Z,40.38
2023-05-23T12:04:22.428Z,40.20
2023-05-23T12:06:50.032Z,40.23
2023-05-23T12:09:17.468Z,40.30
2023-05-23T12:11:45.459Z,40.13
2023-05-23T12:14:17.041Z,40.04
2023-05-23T12:16:48.376Z,39.85
2023-05-23T12:19:19.338Z,39.85
2023-05-23T12:21:48.034Z,39.99
2023-05-23T12:24:22.777Z,40.05
2023-05-23T12:26:50.811Z,39.68
2023-05-23T12:29:22.424Z,39.54
2023-05-23T12:31:51.689Z,39.68
2023-05-23T12:34:20.539Z,39.99
2023-05-23T12:36:50.734Z,40.26
2023-05-23T12:39:30.805Z,40.38
2023-05-23T12:42:08.936Z,40.48
2023-05-23T12:44:36.769Z,40.64
2023-05-23T12:47:04.396Z,40.84
2023-05-23T12:49:31.792Z,40.79
2023-05-23T12:51:59.074Z,40.79
2023-05-23T12:54:26.494Z,40.65
2023-05-23T12:56:53.799Z,40.25
2023-05-23T12:59:21.151Z,40.36
2023-05-23T13:01:48.446Z,40.28
2023-05-23T13:04:15.980Z,40.07
2023-05-23T13:06:43.689Z,40.14
2023-05-23T13:09:10.945Z,40.36
2023-05-23T13:11:38.272Z,40.72
2023-05-23T13:14:05.623Z,40.88
2023-05-23T13:16:33.173Z,40.85
2023-05-23T13:19:03.580Z,40.86
2023-05-23T13:21:31.778Z,40.53
2023-05-23T13:23:59.071Z,40.16
2023-05-23T13:26:26.830Z,40.17
2023-05-23T13:28:54.213Z,40.30
2023-05-23T13:31:21.772Z,39.81
2023-05-23T13:33:49.131Z,39.02
2023-05-23T13:36:16.519Z,38.42
2023-05-23T13:38:43.868Z,38.03
2023-05-23T13:41:11.226Z,37.94
2023-05-23T13:43:38.687Z,38.50
2023-05-23T13:46:06.008Z,38.52
2023-05-23T13:48:33.499Z,38.66
2023-05-23T13:51:01.419Z,38.48
2023-05-23T13:53:28.953Z,38.25
2023-05-23T13:55:56.280Z,38.17
2023-05-23T13:58:23.605Z,38.28
2023-05-23T14:00:51.013Z,38.39
2023-05-23T14:03:19.706Z,38.50
2023-05-23T14:05:47.113Z,38.65
2023-05-23T14:08:14.539Z,38.83
2023-05-23T14:10:41.995Z,38.95
2023-05-23T14:13:09.593Z,39.23
2023-05-23T14:15:38.489Z,39.54
2023-05-23T14:18:06.222Z,39.75
2023-05-23T14:20:33.551Z,39.82
2023-05-23T14:23:01.008Z,39.91
2023-05-23T14:25:28.345Z,39.80
2023-05-23T14:27:57.621Z,39.80
2023-05-23T14:30:24.955Z,39.93
2023-05-23T14:32:52.265Z,39.88
2023-05-23T14:35:19.649Z,39.74
2023-05-23T14:37:46.976Z,39.88
2023-05-23T14:40:16.212Z,40.09
2023-05-23T14:42:43.546Z,40.28
2023-05-23T14:45:11.458Z,40.04
2023-05-23T14:47:39.043Z,39.86
2023-05-23T14:50:08.090Z,39.57
2023-05-23T14:52:35.429Z,39.66
2023-05-23T14:55:02.745Z,39.68
2023-05-23T14:57:30.119Z,39.82
2023-05-23T14:59:57.512Z,39.72
2023-05-23T15:02:24.880Z,39.59
2023-05-23T15:04:52.476Z,39.38
2023-05-23T15:07:19.773Z,38.85
2023-05-23T15:09:47.850Z,38.66
2023-05-23T15:12:18.109Z,38.76
2023-05-23T15:14:45.390Z,38.86
2023-05-23T15:17:13.563Z,39.02
2023-05-23T15:19:43.237Z,39.15
2023-05-23T15:22:18.803Z,39.17
2023-05-23T15:25:00.789Z,38.85
2023-05-23T15:27:28.174Z,38.64
2023-05-23T15:29:55.468Z,38.54
2023-05-23T15:32:23.177Z,38.30
2023-05-23T15:34:50.591Z,38.32
2023-05-23T15:37:17.896Z,38.30
2023-05-23T15:39:45.294Z,38.39
2023-05-23T15:42:12.598Z,38.42
2023-05-23T15:44:42.897Z,38.54
2023-05-23T15:47:10.711Z,38.75
2023-05-23T15:49:38.007Z,38.77
2023-05-23T15:52:05.533Z,38.70
2023-05-23T15:54:32.904Z,38.81
2023-05-23T15:57:00.406Z,38.45
2023-05-23T15:59:27.740Z,38.01
2023-05-23T16:01:55.083Z,36.20
2023-05-23T16:04:25.266Z,35.63
2023-05-23T16:06:55.451Z,35.54
2023-05-23T16:09:23.254Z,35.34
2023-05-23T16:11:50.672Z,35.12
2023-05-23T16:14:17.960Z,34.64
2023-05-23T16:16:45.590Z,34.30
2023-05-23T16:19:13.153Z,34.28
2023-05-23T16:21:40.476Z,34.71
2023-05-23T16:24:07.755Z,34.80
2023-05-23T16:26:35.052Z,34.59
2023-05-23T16:29:02.383Z,34.44
2023-05-23T16:31:29.866Z,34.40
2023-05-23T16:33:58.985Z,34.36
2023-05-23T16:36:27.394Z,34.49
2023-05-23T16:38:55.703Z,34.39
2023-05-23T16:41:23.473Z,34.28
2023-05-23T16:43:51.282Z,35.08
2023-05-23T16:46:20.625Z,34.43
2023-05-23T16:48:49.583Z,35.45
2023-05-23T16:51:16.976Z,35.93
2023-05-23T16:53:44.291Z,36.02
2023-05-23T16:56:11.620Z,35.84
2023-05-23T16:58:39.001Z,34.97
2023-05-23T17:01:07.006Z,35.35
2023-05-23T17:03:34.593Z,35.72
2023-05-23T17:06:02.054Z,35.60
2023-05-23T17:08:29.675Z,35.57
2023-05-23T17:10:57.220Z,35.44
2023-05-23T17:13:24.492Z,35.32
2023-05-23T17:15:52.310Z,35.22
2023-05-23T17:18:19.990Z,35.14
2023-05-23T17:20:47.278Z,34.85
2023-05-23T17:23:14.620Z,34.72
2023-05-23T17:25:42.822Z,34.79
2023-05-23T17:28:11.470Z,34.87
2023-05-23T17:30:40.286Z,34.86
2023-05-23T17:33:08.522Z,34.82
2023-05-23T17:35:39.325Z,34.98
2023-05-23T17:38:07.071Z,34.90
2023-05-23T17:40:34.576Z,35.06
2023-05-23T17:43:01.989Z,35.05
2023-05-23T17:45:29.296Z,35.27
2023-05-23T17:47:58.723Z,35.32
2023-05-23T17:50:26.202Z,35.41
2023-05-23T17:52:53.659Z,35.31
2023-05-23T17:55:21.515Z,34.99
2023-05-23T17:57:48.822Z,34.87
2023-05-23T18:00:17.655Z,35.24
2023-05-23T18:02:45.050Z,34.83
2023-05-23T18:05:12.673Z,34.29
2023-05-23T18:07:40.001Z,34.00
2023-05-23T18:10:08.456Z,34.04
2023-05-23T18:12:36.321Z,34.24
2023-05-23T18:15:03.920Z,34.23
2023-05-23T18:17:31.751Z,34.15
2023-05-23T18:19:59.202Z,33.99
2023-05-23T18:22:26.523Z,33.77
2023-05-23T18:24:53.778Z,33.45
2023-05-23T18:27:21.042Z,33.37
2023-05-23T18:29:48.376Z,33.33
2023-05-23T18:32:15.896Z,33.19
2023-05-23T18:34:43.224Z,33.01
2023-05-23T18:37:10.552Z,32.93
2023-05-23T18:39:37.954Z,32.69
2023-05-23T18:42:05.756Z,32.35
2023-05-23T18:44:33.438Z,32.19
2023-05-23T18:47:00.977Z,32.10
2023-05-23T18:49:28.562Z,32.10
2023-05-23T18:51:55.989Z,32.35
2023-05-23T18:54:23.468Z,32.49
2023-05-23T18:56:50.881Z,32.64
2023-05-23T18:59:18.242Z,32.60
2023-05-23T19:01:45.721Z,32.55
2023-05-23T19:04:13.653Z,32.55
2023-05-23T19:06:41.109Z,32.46
2023-05-23T19:09:11.576Z,32.03
2023-05-23T19:11:39.839Z,31.80
2023-05-23T19:14:07.182Z,31.65
2023-05-23T19:16:36.228Z,31.64
2023-05-23T19:19:03.754Z,32.19
2023-05-23T19:21:31.940Z,32.31
2023-05-23T19:23:59.282Z,32.26
2023-05-23T19:26:26.612Z,32.18
2023-05-23T19:28:54.100Z,32.00
2023-05-23T19:31:21.465Z,31.87
2023-05-23T19:33:48.833Z,31.46
2023-05-23T19:36:16.124Z,31.40
2023-05-23T19:38:43.498Z,31.38
2023-05-23T19:41:11.181Z,31.20
2023-05-23T19:43:38.482Z,30.99
2023-05-23T19:46:06.017Z,31.10
2023-05-23T19:48:33.416Z,31.03
2023-05-23T19:51:00.739Z,30.78
2023-05-23T19:53:28.024Z,30.65
2023-05-23T19:55:55.356Z,30.85
2023-05-23T19:58:22.782Z,30.83
2023-05-23T20:00:50.158Z,30.98
2023-05-23T20:03:17.461Z,31.04
2023-05-23T20:05:44.884Z,31.04
2023-05-23T20:08:12.216Z,30.95
2023-05-23T20:10:40.151Z,30.75
2023-05-23T20:13:07.742Z,30.56
2023-05-23T20:15:39.865Z,30.42
2023-05-23T20:18:08.028Z,30.23
2023-05-23T20:20:35.601Z,30.12
2023-05-23T20:23:03.341Z,30.13
2023-05-23T20:25:31.575Z,29.71
2023-05-23T20:27:58.879Z,28.04
2023-05-23T20:30:26.447Z,27.94
2023-05-23T20:34:41.053Z,24.52
2023-05-23T20:37:07.526Z,26.10
2023-05-23T20:39:34.264Z,26.50
2023-05-23T20:42:00.830Z,26.59
2023-05-23T20:44:27.451Z,26.70
2023-05-23T20:46:56.563Z,27.09
2023-05-23T20:49:24.239Z,26.74
2023-05-23T20:51:50.665Z,26.77
2023-05-23T20:54:17.134Z,26.65
2023-05-23T20:56:43.731Z,27.07
2023-05-23T20:59:11.542Z,26.90
2023-05-23T21:01:39.602Z,27.11
2023-05-23T21:04:06.403Z,27.16
2023-05-23T21:06:33.817Z,27.42
2023-05-23T21:09:00.453Z,27.47
2023-05-23T21:11:26.947Z,27.51
2023-05-23T21:13:53.436Z,27.66
2023-05-23T21:16:19.961Z,27.82
2023-05-23T21:18:46.390Z,27.63
2023-05-23T21:21:12.993Z,27.57
2023-05-23T21:23:40.159Z,27.52
2023-05-23T21:26:06.600Z,27.57
2023-05-23T21:28:33.242Z,27.59
2023-05-23T21:31:04.780Z,27.41
2023-05-23T21:33:31.325Z,27.06
2023-05-23T21:35:59.351Z,26.59
2023-05-23T21:38:28.931Z,26.45
2023-05-23T21:40:55.527Z,26.37
2023-05-23T21:43:24.802Z,26.21
2023-05-23T21:45:51.448Z,26.11
2023-05-23T21:48:17.978Z,26.11
2023-05-23T21:50:44.548Z,26.06
2023-05-23T21:53:11.304Z,26.01
2023-05-23T21:55:37.891Z,26.01
2023-05-23T21:58:04.464Z,26.04
2023-05-23T22:00:31.106Z,25.91
2023-05-23T22:02:57.605Z,25.78
2023-05-23T22:05:24.323Z,25.81
2023-05-23T22:07:50.916Z,25.82
2023-05-23T22:10:17.687Z,25.82
2023-05-23T22:12:44.898Z,25.90
2023-05-23T22:15:11.652Z,25.79
2023-05-23T22:17:42.797Z,25.40
2023-05-23T22:20:12.432Z,25.61
2023-05-23T22:22:40.491Z,25.60
2023-05-23T22:25:07.583Z,25.63
2023-05-23T22:27:35.093Z,25.51
2023-05-23T22:30:01.929Z,25.43
2023-05-23T22:32:28.614Z,25.53
2023-05-23T22:34:55.333Z,25.48
2023-05-23T22:37:21.801Z,25.74
2023-05-23T22:39:48.331Z,25.45
2023-05-23T22:42:14.763Z,25.55
2023-05-23T22:44:41.369Z,25.14
2023-05-23T22:47:12.852Z,24.86
2023-05-23T22:49:41.482Z,24.69
2023-05-23T22:52:07.957Z,24.68
2023-05-23T22:54:34.427Z,24.78
2023-05-23T22:57:01.011Z,24.73
2023-05-23T22:59:29.330Z,24.81
2023-05-23T23:01:56.879Z,24.93
2023-05-23T23:04:24.883Z,24.96
2023-05-23T23:06:53.030Z,24.82
2023-05-23T23:09:20.003Z,24.56
2023-05-23T23:11:46.803Z,24.74
2023-05-23T23:14:13.494Z,24.69
2023-05-23T23:16:39.907Z,24.32
2023-05-23T23:19:06.349Z,24.28
2023-05-23T23:21:32.933Z,24.27
2023-05-23T23:23:59.657Z,24.25
2023-05-23T23:26:27.191Z,24.33
2023-05-23T23:28:53.706Z,24.31
2023-05-23T23:31:21.006Z,24.26
2023-05-23T23:33:49.208Z,24.07
2023-05-23T23:36:15.741Z,23.73
2023-05-23T23:38:42.390Z,24.15
2023-05-23T23:41:08.987Z,24.23
2023-05-23T23:43:37.093Z,24.05
2023-05-23T23:46:03.978Z,23.94
2023-05-23T23:48:30.708Z,24.17
2023-05-23T23:50:57.440Z,24.27
2023-05-23T23:53:24.030Z,24.28
2023-05-23T23:55:50.676Z,24.15
2023-05-23T23:58:17.412Z,24.18
